createdAt,value
2022-08-17T05:14:44.498Z,1007.91
2022-08-17T05:15:45.081Z,1007.88
2022-08-17T05:16:42.698Z,1007.84
2022-08-17T05:17:41.657Z,1007.75
2022-08-17T05:18:41.647Z,1007.71
2022-08-17T05:19:41.997Z,1007.76
2022-08-17T05:20:41.630Z,1007.72
2022-08-17T05:21:41.818Z,1007.75
2022-08-17T05:22:41.548Z,1007.80
2022-08-17T05:23:43.111Z,1007.81
2022-08-17T05:24:43.504Z,1007.76
2022-08-17T05:25:42.625Z,1007.76
2022-08-17T05:26:42.871Z,1007.65
2022-08-17T05:27:41.519Z,1007.65
2022-08-17T05:28:41.480Z,1007.67
2022-08-17T05:29:41.829Z,1007.69
2022-08-17T05:30:41.521Z,1007.70
2022-08-17T05:31:41.791Z,1007.76
2022-08-17T05:32:41.415Z,1007.77
2022-08-17T05:33:44.535Z,1007.75
2022-08-17T05:34:41.412Z,1007.71
2022-08-17T05:35:41.351Z,1007.75
2022-08-17T05:36:44.510Z,1007.79
2022-08-17T05:37:41.363Z,1007.77
2022-08-17T05:38:41.344Z,1007.78
2022-08-17T05:39:41.432Z,1007.80
2022-08-17T05:40:41.224Z,1007.79
2022-08-17T05:41:42.065Z,1007.72
2022-08-17T05:42:41.994Z,1007.77
2022-08-17T05:43:41.210Z,1007.76
2022-08-17T05:44:41.168Z,1007.80
2022-08-17T05:45:55.932Z,1007.83
2022-08-17T05:46:42.303Z,1007.83
2022-08-17T05:47:41.347Z,1007.81
2022-08-17T05:48:41.154Z,1007.81
2022-08-17T05:49:41.099Z,1007.82
2022-08-17T05:50:41.367Z,1007.89
2022-08-17T05:51:41.829Z,1007.89
2022-08-17T05:52:41.802Z,1007.88
2022-08-17T05:53:41.079Z,1007.90
2022-08-17T05:54:41.034Z,1007.90
2022-08-17T05:55:41.045Z,1007.89
2022-08-17T05:56:41.054Z,1007.90
2022-08-17T05:57:43.484Z,1007.91
2022-08-17T05:58:42.007Z,1007.93
2022-08-17T05:59:40.981Z,1007.89
2022-08-17T06:00:42.121Z,1007.91
2022-08-17T06:01:41.069Z,1007.95
2022-08-17T06:02:45.572Z,1008.01
2022-08-17T06:03:42.774Z,1008.08
2022-08-17T06:04:41.919Z,1008.19
2022-08-17T06:05:40.859Z,1008.31
2022-08-17T06:06:40.937Z,1008.38
2022-08-17T06:07:41.025Z,1008.41
2022-08-17T06:08:40.975Z,1008.41
2022-08-17T06:09:40.871Z,1008.52
2022-08-17T06:10:41.004Z,1008.53
2022-08-17T06:11:40.815Z,1008.54
2022-08-17T06:12:40.826Z,1008.63
2022-08-17T06:13:40.772Z,1008.70
2022-08-17T06:14:41.752Z,1008.74
2022-08-17T06:15:40.956Z,1008.88
2022-08-17T06:16:40.728Z,1008.86
2022-08-17T06:17:40.706Z,1008.78
2022-08-17T06:18:40.698Z,1008.78
2022-08-17T06:19:40.701Z,1008.88
2022-08-17T06:20:40.685Z,1008.91
2022-08-17T06:21:40.679Z,1008.89
2022-08-17T06:22:40.643Z,1009.00
2022-08-17T06:23:40.610Z,1009.03
2022-08-17T06:24:41.537Z,1009.09
2022-08-17T06:25:40.622Z,1009.10
2022-08-17T06:26:43.189Z,1009.15
2022-08-17T06:27:40.574Z,1009.19
2022-08-17T06:28:40.593Z,1009.25
2022-08-17T06:29:40.542Z,1009.25
2022-08-17T06:30:59.318Z,1009.26
2022-08-17T06:31:42.384Z,1009.32
2022-08-17T06:32:41.272Z,1009.36
2022-08-17T06:33:40.492Z,1009.40
2022-08-17T06:34:41.332Z,1009.48
2022-08-17T06:35:40.523Z,1009.46
2022-08-17T06:36:40.476Z,1009.54
2022-08-17T06:37:40.458Z,1009.59
2022-08-17T06:38:40.508Z,1009.63
2022-08-17T06:39:40.491Z,1009.72
2022-08-17T06:40:40.445Z,1009.84
2022-08-17T06:41:40.534Z,1009.80
2022-08-17T06:42:54.759Z,1009.82
2022-08-17T06:43:45.017Z,1009.88
2022-08-17T06:44:43.597Z,1009.80
2022-08-17T06:45:41.409Z,1009.92
2022-08-17T06:46:40.377Z,1009.82
2022-08-17T06:47:40.357Z,1009.89
2022-08-17T06:48:40.710Z,1009.87
2022-08-17T06:49:40.329Z,1009.89
2022-08-17T06:50:40.374Z,1009.90
2022-08-17T06:51:40.250Z,1009.82
2022-08-17T06:52:46.704Z,1009.91
2022-08-17T06:53:41.263Z,1009.90
2022-08-17T06:54:40.242Z,1009.87
2022-08-17T06:55:40.377Z,1009.89
2022-08-17T06:56:53.033Z,1009.89
2022-08-17T06:57:41.184Z,1009.93
2022-08-17T06:58:41.084Z,1009.85
2022-08-17T06:59:55.257Z,1009.86
2022-08-17T07:00:41.173Z,1009.87
2022-08-17T07:01:40.264Z,1009.91
2022-08-17T07:03:02.278Z,1009.94
2022-08-17T07:03:43.047Z,1009.88
2022-08-17T07:04:41.016Z,1009.95
2022-08-17T07:05:40.045Z,1009.91
2022-08-17T07:06:40.826Z,1009.88
2022-08-17T07:07:40.579Z,1009.94
2022-08-17T07:08:40.028Z,1010.00
2022-08-17T07:09:40.222Z,1010.00
2022-08-17T07:10:39.977Z,1009.99
2022-08-17T07:11:40.650Z,1010.05
2022-08-17T07:12:40.618Z,1010.08
2022-08-17T07:13:39.919Z,1010.05
2022-08-17T07:14:39.930Z,1010.08
2022-08-17T07:15:40.726Z,1010.06
2022-08-17T07:16:40.960Z,1010.08
2022-08-17T07:17:47.720Z,1010.11
2022-08-17T07:18:41.044Z,1010.07
2022-08-17T07:19:40.862Z,1010.05
2022-08-17T07:20:41.806Z,1010.05
2022-08-17T07:21:39.843Z,1010.08
2022-08-17T07:22:55.329Z,1010.12
2022-08-17T07:23:40.782Z,1010.09
2022-08-17T07:24:40.630Z,1010.11
2022-08-17T07:25:41.756Z,1010.11
2022-08-17T07:26:40.580Z,1010.13
2022-08-17T07:27:40.601Z,1010.10
2022-08-17T07:28:39.738Z,1010.17
2022-08-17T07:29:40.700Z,1010.14
2022-08-17T07:30:45.802Z,1010.11
2022-08-17T07:31:40.678Z,1010.04
2022-08-17T07:32:40.629Z,1010.08
2022-08-17T07:33:39.671Z,1010.04
2022-08-17T07:34:39.679Z,1010.13
2022-08-17T07:35:41.290Z,1010.08
2022-08-17T07:36:39.665Z,1010.08
2022-08-17T07:37:40.440Z,1010.07
2022-08-17T07:38:40.573Z,1010.05
2022-08-17T07:39:58.906Z,1010.01
2022-08-17T07:40:40.620Z,1010.00
2022-08-17T07:41:57.678Z,1010.00
2022-08-17T07:42:44.934Z,1009.97
2022-08-17T07:43:40.601Z,1009.96
2022-08-17T07:44:39.544Z,1009.99
2022-08-17T07:45:39.569Z,1010.03
2022-08-17T07:46:39.506Z,1010.01
2022-08-17T07:47:39.504Z,1010.07
2022-08-17T07:48:39.661Z,1010.04
2022-08-17T07:49:39.480Z,1010.01
2022-08-17T07:50:39.456Z,1010.02
2022-08-17T07:51:40.337Z,1010.04
2022-08-17T07:52:51.049Z,1010.05
2022-08-17T07:53:42.367Z,1010.07
2022-08-17T07:54:39.387Z,1010.01
2022-08-17T07:55:39.401Z,1010.04
2022-08-17T07:56:40.150Z,1010.12
2022-08-17T07:57:40.279Z,1010.06
2022-08-17T07:58:39.323Z,1010.12
2022-08-17T07:59:41.236Z,1010.15
2022-08-17T08:00:40.270Z,1010.18
2022-08-17T08:01:39.435Z,1010.14
2022-08-17T08:02:39.302Z,1010.13
2022-08-17T08:03:40.242Z,1010.16
2022-08-17T08:05:49.830Z,1010.17
2022-08-17T08:06:40.232Z,1010.18
2022-08-17T08:07:39.353Z,1010.11
2022-08-17T08:08:39.246Z,1010.14
2022-08-17T08:09:39.277Z,1010.07
2022-08-17T08:10:45.079Z,1010.12
2022-08-17T08:11:44.122Z,1010.11
2022-08-17T08:12:39.176Z,1010.06
2022-08-17T08:13:39.154Z,1010.07
2022-08-17T08:14:39.187Z,1010.06
2022-08-17T08:15:39.087Z,1010.08
2022-08-17T08:16:40.088Z,1010.08
2022-08-17T08:17:39.175Z,1010.07
2022-08-17T08:18:55.782Z,1010.07
2022-08-17T08:19:40.110Z,1010.11
2022-08-17T08:20:52.080Z,1010.19
2022-08-17T08:21:41.529Z,1010.17
2022-08-17T08:22:39.252Z,1010.18
2022-08-17T08:23:39.830Z,1010.20
2022-08-17T08:24:39.046Z,1010.20
2022-08-17T08:25:39.345Z,1010.24
2022-08-17T08:26:39.345Z,1010.22
2022-08-17T08:27:39.338Z,1010.25
2022-08-17T08:28:38.952Z,1010.28
2022-08-17T08:29:38.937Z,1010.25
2022-08-17T08:30:39.297Z,1010.30
2022-08-17T08:31:42.238Z,1010.28
2022-08-17T08:32:38.878Z,1010.28
2022-08-17T08:33:39.652Z,1010.34
2022-08-17T08:34:53.184Z,1010.33
2022-08-17T08:35:40.728Z,1010.34
2022-08-17T08:37:02.076Z,1010.34
2022-08-17T08:37:43.214Z,1010.35
2022-08-17T08:38:38.871Z,1010.32
2022-08-17T08:39:38.865Z,1010.34
2022-08-17T08:40:38.813Z,1010.33
2022-08-17T08:41:39.645Z,1010.40
2022-08-17T08:42:39.820Z,1010.39
2022-08-17T08:43:39.700Z,1010.36
2022-08-17T08:44:59.879Z,1010.31
2022-08-17T08:45:40.580Z,1010.38
2022-08-17T08:46:38.693Z,1010.31
2022-08-17T08:47:39.573Z,1010.33
2022-08-17T08:48:56.837Z,1010.35
2022-08-17T08:50:02.564Z,1010.39
2022-08-17T08:50:39.674Z,1010.42
2022-08-17T08:51:38.661Z,1010.35
2022-08-17T08:52:39.624Z,1010.40
2022-08-17T08:53:38.644Z,1010.38
2022-08-17T08:54:39.413Z,1010.33
2022-08-17T08:55:38.597Z,1010.32
2022-08-17T08:56:38.866Z,1010.35
2022-08-17T08:57:39.074Z,1010.36
2022-08-17T08:58:41.733Z,1010.39
2022-08-17T08:59:42.144Z,1010.45
2022-08-17T09:00:39.563Z,1010.46
2022-08-17T09:01:38.597Z,1010.48
2022-08-17T09:02:38.548Z,1010.43
2022-08-17T09:03:52.309Z,1010.50
2022-08-17T09:05:10.311Z,1010.47
2022-08-17T09:05:39.457Z,1010.37
2022-08-17T09:06:39.081Z,1010.45
2022-08-17T09:07:38.566Z,1010.40
2022-08-17T09:08:38.442Z,1010.37
2022-08-17T09:09:38.457Z,1010.34
2022-08-17T09:10:39.166Z,1010.37
2022-08-17T09:12:02.543Z,1010.38
2022-08-17T09:12:39.397Z,1010.39
2022-08-17T09:13:38.376Z,1010.37
2022-08-17T09:14:45.059Z,1010.43
2022-08-17T09:15:39.398Z,1010.40
2022-08-17T09:16:38.310Z,1010.38
2022-08-17T09:17:38.797Z,1010.38
2022-08-17T09:19:00.582Z,1010.41
2022-08-17T09:19:39.357Z,1010.39
2022-08-17T09:20:38.349Z,1010.45
2022-08-17T09:21:39.119Z,1010.39
2022-08-17T09:22:39.211Z,1010.43
2022-08-17T09:23:38.540Z,1010.41
2022-08-17T09:24:38.978Z,1010.45
2022-08-17T09:25:38.742Z,1010.49
2022-08-17T09:26:38.811Z,1010.47
2022-08-17T09:27:38.191Z,1010.42
2022-08-17T09:28:38.181Z,1010.44
2022-08-17T09:29:38.262Z,1010.43
2022-08-17T09:30:38.192Z,1010.41
2022-08-17T09:31:46.480Z,1010.48
2022-08-17T09:32:39.861Z,1010.48
2022-08-17T09:33:38.098Z,1010.46
2022-08-17T09:34:38.904Z,1010.48
2022-08-17T09:35:38.118Z,1010.47
2022-08-17T09:36:38.077Z,1010.45
2022-08-17T09:37:38.135Z,1010.49
2022-08-17T09:38:38.093Z,1010.47
2022-08-17T09:39:39.055Z,1010.46
2022-08-17T09:40:38.008Z,1010.47
2022-08-17T09:41:38.017Z,1010.45
2022-08-17T09:42:38.029Z,1010.43
2022-08-17T09:43:38.238Z,1010.35
2022-08-17T09:44:38.119Z,1010.38
2022-08-17T09:45:38.147Z,1010.40
2022-08-17T09:46:38.883Z,1010.42
2022-08-17T09:47:38.151Z,1010.45
2022-08-17T09:48:38.080Z,1010.48
2022-08-17T09:49:37.922Z,1010.49
2022-08-17T09:51:04.094Z,1010.43
2022-08-17T09:51:38.965Z,1010.42
2022-08-17T09:52:37.877Z,1010.46
2022-08-17T09:53:37.831Z,1010.42
2022-08-17T09:54:39.560Z,1010.42
2022-08-17T09:55:37.890Z,1010.45
2022-08-17T09:56:41.036Z,1010.45
2022-08-17T09:57:38.825Z,1010.46
2022-08-17T09:58:37.762Z,1010.44
2022-08-17T09:59:38.606Z,1010.37
2022-08-17T10:00:37.795Z,1010.35
2022-08-17T10:01:37.788Z,1010.38
2022-08-17T10:02:37.716Z,1010.36
2022-08-17T10:03:38.677Z,1010.34
2022-08-17T10:04:39.647Z,1010.39
2022-08-17T10:05:37.723Z,1010.38
2022-08-17T10:06:37.668Z,1010.36
2022-08-17T10:07:37.667Z,1010.39
2022-08-17T10:08:37.634Z,1010.39
2022-08-17T10:09:37.650Z,1010.39
2022-08-17T10:10:37.620Z,1010.38
2022-08-17T10:11:37.610Z,1010.39
2022-08-17T10:12:39.349Z,1010.37
2022-08-17T10:13:39.513Z,1010.45
2022-08-17T10:14:44.371Z,1010.48
2022-08-17T10:15:38.564Z,1010.38
2022-08-17T10:16:37.543Z,1010.43
2022-08-17T10:17:37.704Z,1010.44
2022-08-17T10:18:37.548Z,1010.43
2022-08-17T10:19:37.604Z,1010.43
2022-08-17T10:20:37.494Z,1010.41
2022-08-17T10:21:37.524Z,1010.42
2022-08-17T10:22:37.926Z,1010.45
2022-08-17T10:23:37.466Z,1010.49
2022-08-17T10:24:37.435Z,1010.51
2022-08-17T10:25:54.051Z,1010.52
2022-08-17T10:26:55.354Z,1010.49
2022-08-17T10:27:38.450Z,1010.52
2022-08-17T10:28:37.401Z,1010.53
2022-08-17T10:29:49.243Z,1010.51
2022-08-17T10:30:38.494Z,1010.49
2022-08-17T10:31:37.377Z,1010.45
2022-08-17T10:32:37.379Z,1010.50
2022-08-17T10:33:37.371Z,1010.47
2022-08-17T10:35:05.241Z,1010.44
2022-08-17T10:36:10.575Z,1010.36
2022-08-17T10:37:05.124Z,1010.35
2022-08-17T10:38:05.090Z,1010.31
2022-08-17T10:39:05.111Z,1010.34
2022-08-17T10:40:05.120Z,1010.38
2022-08-17T10:41:05.154Z,1010.31
2022-08-17T10:42:05.124Z,1010.32
2022-08-17T10:43:05.204Z,1010.29
2022-08-17T10:44:37.252Z,1010.26
2022-08-17T10:45:06.253Z,1010.31
2022-08-17T10:46:09.257Z,1010.29
2022-08-17T10:47:06.034Z,1010.30
2022-08-17T10:48:06.646Z,1010.23
2022-08-17T10:49:05.195Z,1010.28
2022-08-17T10:50:04.998Z,1010.24
2022-08-17T10:51:05.920Z,1010.26
2022-08-17T10:52:04.930Z,1010.26
2022-08-17T10:53:05.170Z,1010.22
2022-08-17T10:54:04.960Z,1010.22
2022-08-17T10:55:04.954Z,1010.19
2022-08-17T10:56:04.879Z,1010.21
2022-08-17T10:57:04.909Z,1010.18
2022-08-17T10:58:04.856Z,1010.15
2022-08-17T10:59:04.853Z,1010.11
2022-08-17T11:00:04.861Z,1010.09
2022-08-17T11:01:04.924Z,1010.08
2022-08-17T11:02:04.895Z,1010.10
2022-08-17T11:03:04.960Z,1010.12
2022-08-17T11:04:04.887Z,1010.09
2022-08-17T11:05:04.862Z,1010.12
2022-08-17T11:06:04.832Z,1010.10
2022-08-17T11:07:04.805Z,1010.10
2022-08-17T11:08:04.776Z,1010.08
2022-08-17T11:09:04.812Z,1010.08
2022-08-17T11:10:04.738Z,1010.11
2022-08-17T11:11:04.777Z,1010.09
2022-08-17T11:12:04.804Z,1010.14
2022-08-17T11:13:04.690Z,1010.12
2022-08-17T11:14:05.208Z,1010.13
2022-08-17T11:15:04.709Z,1010.19
2022-08-17T11:16:08.256Z,1010.13
2022-08-17T11:17:04.996Z,1010.14
2022-08-17T11:18:04.849Z,1010.17
2022-08-17T11:19:06.574Z,1010.20
2022-08-17T11:20:04.640Z,1010.14
2022-08-17T11:21:04.641Z,1010.11
2022-08-17T11:22:04.650Z,1010.14
2022-08-17T11:23:04.625Z,1010.10
2022-08-17T11:24:05.126Z,1010.11
2022-08-17T11:25:04.621Z,1010.08
2022-08-17T11:26:04.619Z,1010.08
2022-08-17T11:27:04.560Z,1010.09
2022-08-17T11:28:04.554Z,1010.15
2022-08-17T11:29:04.484Z,1010.15
2022-08-17T11:30:05.861Z,1010.18
2022-08-17T11:31:05.435Z,1010.18
2022-08-17T11:32:04.986Z,1010.14
2022-08-17T11:33:06.569Z,1010.14
2022-08-17T11:34:04.633Z,1010.16
2022-08-17T11:35:04.813Z,1010.09
2022-08-17T11:36:06.635Z,1010.07
2022-08-17T11:37:04.654Z,1010.08
2022-08-17T11:38:08.700Z,1010.06
2022-08-17T11:39:08.714Z,1009.99
2022-08-17T11:40:06.005Z,1010.00
2022-08-17T11:41:06.452Z,1009.98
2022-08-17T11:42:04.310Z,1010.01
2022-08-17T11:43:04.370Z,1010.05
2022-08-17T11:44:04.466Z,1010.01
2022-08-17T11:45:04.541Z,1010.01
2022-08-17T11:46:04.323Z,1010.02
2022-08-17T11:47:06.258Z,1010.11
2022-08-17T11:49:05.291Z,1009.99
2022-08-17T11:50:04.312Z,1009.98
2022-08-17T11:51:04.301Z,1010.03
2022-08-17T11:52:04.282Z,1010.04
2022-08-17T11:53:04.332Z,1009.98
2022-08-17T11:54:31.164Z,1009.99
2022-08-17T11:55:31.957Z,1009.96
2022-08-17T11:56:05.146Z,1009.92
2022-08-17T11:57:04.261Z,1009.92
2022-08-17T11:58:04.121Z,1009.89
2022-08-17T11:59:04.858Z,1009.92
2022-08-17T12:00:04.259Z,1009.85
2022-08-17T12:01:04.186Z,1009.91
2022-08-17T12:02:04.375Z,1009.92
2022-08-17T12:03:04.159Z,1009.92
2022-08-17T12:04:04.302Z,1009.87
2022-08-17T12:05:04.080Z,1009.83
2022-08-17T12:06:05.068Z,1009.83
2022-08-17T12:07:04.058Z,1009.83
2022-08-17T12:08:04.912Z,1009.83
2022-08-17T12:09:04.134Z,1009.82
2022-08-17T12:10:04.045Z,1009.79
2022-08-17T12:11:03.980Z,1009.81
2022-08-17T12:12:13.462Z,1009.80
2022-08-17T12:13:04.952Z,1009.80
2022-08-17T12:14:04.535Z,1009.81
2022-08-17T12:15:11.433Z,1009.86
2022-08-17T12:16:04.696Z,1009.87
2022-08-17T12:17:04.034Z,1009.85
2022-08-17T12:18:17.186Z,1009.84
2022-08-17T12:19:07.205Z,1009.87
2022-08-17T12:20:30.367Z,1009.85
2022-08-17T12:21:07.305Z,1009.82
2022-08-17T12:22:06.116Z,1009.85
2022-08-17T12:23:05.418Z,1009.77
2022-08-17T12:24:08.194Z,1009.78
2022-08-17T12:25:05.296Z,1009.77
2022-08-17T12:26:04.789Z,1009.76
2022-08-17T12:27:03.855Z,1009.80
2022-08-17T12:28:07.408Z,1009.78
2022-08-17T12:29:03.785Z,1009.78
2022-08-17T12:30:04.729Z,1009.75
2022-08-17T12:31:05.211Z,1009.84
2022-08-17T12:32:03.716Z,1009.80
2022-08-17T12:33:03.734Z,1009.83
2022-08-17T12:34:04.242Z,1009.86
2022-08-17T12:35:03.669Z,1009.82
2022-08-17T12:36:03.609Z,1009.82
2022-08-17T12:37:04.473Z,1009.81
2022-08-17T12:38:04.602Z,1009.81
2022-08-17T12:39:13.105Z,1009.83
2022-08-17T12:40:04.630Z,1009.84
2022-08-17T12:41:03.603Z,1009.85
2022-08-17T12:42:03.540Z,1009.79
2022-08-17T12:43:04.466Z,1009.80
2022-08-17T12:44:04.281Z,1009.81
2022-08-17T12:45:04.469Z,1009.84
2022-08-17T12:46:14.818Z,1009.83
2022-08-17T12:47:04.519Z,1009.81
2022-08-17T12:48:04.437Z,1009.83
2022-08-17T12:49:04.338Z,1009.81
2022-08-17T12:50:03.437Z,1009.82
2022-08-17T12:51:03.470Z,1009.80
2022-08-17T12:52:03.539Z,1009.78
2022-08-17T12:53:03.642Z,1009.77
2022-08-17T12:54:03.434Z,1009.78
2022-08-17T12:55:03.769Z,1009.83
2022-08-17T12:56:03.475Z,1009.79
2022-08-17T12:57:03.370Z,1009.78
2022-08-17T12:58:03.421Z,1009.80
2022-08-17T12:59:03.321Z,1009.83
2022-08-17T13:00:03.347Z,1009.85
2022-08-17T13:01:04.176Z,1009.77
2022-08-17T13:02:03.407Z,1009.75
2022-08-17T13:03:03.635Z,1009.81
2022-08-17T13:04:03.255Z,1009.79
2022-08-17T13:05:03.256Z,1009.73
2022-08-17T13:06:03.237Z,1009.69
2022-08-17T13:07:03.258Z,1009.70
2022-08-17T13:08:03.221Z,1009.66
2022-08-17T13:09:04.177Z,1009.63
2022-08-17T13:10:03.208Z,1009.64
2022-08-17T13:11:03.230Z,1009.63
2022-08-17T13:12:03.304Z,1009.66
2022-08-17T13:13:03.290Z,1009.60
2022-08-17T13:14:04.019Z,1009.59
2022-08-17T13:15:03.244Z,1009.57
2022-08-17T13:16:04.020Z,1009.60
2022-08-17T13:17:03.231Z,1009.54
2022-08-17T13:18:03.123Z,1009.57
2022-08-17T13:19:03.094Z,1009.49
2022-08-17T13:20:03.084Z,1009.55
2022-08-17T13:21:03.032Z,1009.54
2022-08-17T13:22:04.151Z,1009.47
2022-08-17T13:23:03.024Z,1009.49
2022-08-17T13:24:03.023Z,1009.41
2022-08-17T13:25:04.914Z,1009.46
2022-08-17T13:26:03.302Z,1009.41
2022-08-17T13:27:07.780Z,1009.41
2022-08-17T13:28:04.076Z,1009.40
2022-08-17T13:29:03.607Z,1009.33
2022-08-17T13:30:03.342Z,1009.33
2022-08-17T13:31:03.208Z,1009.32
2022-08-17T13:32:04.718Z,1009.33
2022-08-17T13:33:04.652Z,1009.33
2022-08-17T13:34:02.908Z,1009.28
2022-08-17T13:35:16.222Z,1009.28
2022-08-17T13:36:04.268Z,1009.25
2022-08-17T13:37:02.910Z,1009.23
2022-08-17T13:38:03.526Z,1009.22
2022-08-17T13:39:03.331Z,1009.22
2022-08-17T13:40:03.967Z,1009.23
2022-08-17T13:41:03.032Z,1009.19
2022-08-17T13:42:04.674Z,1009.27
2022-08-17T13:43:02.886Z,1009.18
2022-08-17T13:44:03.183Z,1009.23
2022-08-17T13:45:02.782Z,1009.23
2022-08-17T13:46:03.743Z,1009.23
2022-08-17T13:47:02.864Z,1009.24
2022-08-17T13:48:03.097Z,1009.24
2022-08-17T13:49:02.728Z,1009.24
2022-08-17T13:50:03.025Z,1009.26
2022-08-17T13:51:02.882Z,1009.25
2022-08-17T13:52:02.819Z,1009.21
2022-08-17T13:53:02.737Z,1009.19
2022-08-17T13:54:02.818Z,1009.20
2022-08-17T13:55:03.277Z,1009.20
2022-08-17T13:56:02.723Z,1009.20
2022-08-17T13:57:03.134Z,1009.18
2022-08-17T13:58:06.834Z,1009.17
2022-08-17T13:59:02.782Z,1009.14
2022-08-17T14:00:02.552Z,1009.20
2022-08-17T14:01:02.854Z,1009.17
2022-08-17T14:02:02.563Z,1009.20
2022-08-17T14:03:02.598Z,1009.21
2022-08-17T14:04:02.521Z,1009.21
2022-08-17T14:05:03.068Z,1009.19
2022-08-17T14:06:02.613Z,1009.18
2022-08-17T14:07:02.458Z,1009.17
2022-08-17T14:08:06.654Z,1009.17
2022-08-17T14:09:02.583Z,1009.14
2022-08-17T14:10:02.626Z,1009.11
2022-08-17T14:11:02.382Z,1009.12
2022-08-17T14:12:02.377Z,1009.16
2022-08-17T14:13:02.380Z,1009.14
2022-08-17T14:14:02.939Z,1009.16
2022-08-17T14:15:02.472Z,1009.15
2022-08-17T14:16:02.585Z,1009.17
2022-08-17T14:17:02.759Z,1009.20
2022-08-17T14:18:04.209Z,1009.15
2022-08-17T14:19:03.133Z,1009.14
2022-08-17T14:20:02.906Z,1009.13
2022-08-17T14:21:02.302Z,1009.11
2022-08-17T14:22:02.874Z,1009.13
2022-08-17T14:23:02.303Z,1009.12
2022-08-17T14:24:02.341Z,1009.10
2022-08-17T14:25:04.899Z,1009.15
2022-08-17T14:26:02.503Z,1009.22
2022-08-17T14:27:02.854Z,1009.17
2022-08-17T14:28:02.263Z,1009.25
2022-08-17T14:29:02.362Z,1009.25
2022-08-17T14:30:02.703Z,1009.24
2022-08-17T14:31:02.697Z,1009.27
2022-08-17T14:32:02.513Z,1009.31
2022-08-17T14:33:03.135Z,1009.27
2022-08-17T14:34:03.727Z,1009.24
2022-08-17T14:35:02.619Z,1009.23
2022-08-17T14:36:02.778Z,1009.20
2022-08-17T14:37:02.236Z,1009.21
2022-08-17T14:38:02.895Z,1009.23
2022-08-17T14:39:02.187Z,1009.14
2022-08-17T14:40:03.829Z,1009.14
2022-08-17T14:41:02.170Z,1009.14
2022-08-17T14:42:03.425Z,1009.15
2022-08-17T14:43:02.361Z,1009.15
2022-08-17T14:44:03.801Z,1009.14
2022-08-17T14:45:02.221Z,1009.12
2022-08-17T14:46:02.263Z,1009.16
2022-08-17T14:47:02.583Z,1009.15
2022-08-17T14:48:02.126Z,1009.16
2022-08-17T14:49:02.284Z,1009.12
2022-08-17T14:50:01.855Z,1009.09
2022-08-17T14:51:02.029Z,1009.15
2022-08-17T14:52:02.116Z,1009.07
2022-08-17T14:53:01.876Z,1009.06
2022-08-17T14:54:01.859Z,1009.08
2022-08-17T14:55:01.811Z,1009.08
2022-08-17T14:56:01.953Z,1009.11
2022-08-17T14:57:22.722Z,1009.09
2022-08-17T14:58:02.907Z,1009.08
2022-08-17T14:59:01.788Z,1009.04
2022-08-17T15:00:01.749Z,1009.05
2022-08-17T15:01:01.999Z,1009.04
2022-08-17T15:02:01.784Z,1009.08
2022-08-17T15:03:01.759Z,1009.01
2022-08-17T15:04:01.738Z,1008.99
2022-08-17T15:05:01.776Z,1008.96
2022-08-17T15:06:01.632Z,1008.96
2022-08-17T15:07:02.003Z,1008.97
2022-08-17T15:08:01.709Z,1008.97
2022-08-17T15:09:01.662Z,1008.92
2022-08-17T15:10:02.544Z,1008.97
2022-08-17T15:11:01.602Z,1008.92
2022-08-17T15:12:01.615Z,1008.93
2022-08-17T15:13:01.562Z,1008.90
2022-08-17T15:14:01.566Z,1008.93
2022-08-17T15:15:01.593Z,1008.91
2022-08-17T15:16:01.516Z,1008.98
2022-08-17T15:17:01.505Z,1008.93
2022-08-17T15:18:02.480Z,1008.91
2022-08-17T15:19:01.494Z,1008.89
2022-08-17T15:20:01.468Z,1008.90
2022-08-17T15:21:01.957Z,1008.84
2022-08-17T15:22:01.452Z,1008.89
2022-08-17T15:23:01.420Z,1008.88
2022-08-17T15:24:01.428Z,1008.88
2022-08-17T15:25:01.401Z,1008.87
2022-08-17T15:26:01.382Z,1008.81
2022-08-17T15:27:01.382Z,1008.79
2022-08-17T15:28:01.362Z,1008.81
2022-08-17T15:29:01.392Z,1008.81
2022-08-17T15:30:01.327Z,1008.78
2022-08-17T15:31:01.312Z,1008.74
2022-08-17T15:32:01.308Z,1008.79
2022-08-17T15:33:02.132Z,1008.81
2022-08-17T15:34:01.298Z,1008.79
2022-08-17T15:35:01.259Z,1008.81
2022-08-17T15:36:01.226Z,1008.78
2022-08-17T15:37:01.270Z,1008.77
2022-08-17T15:38:06.153Z,1008.83
2022-08-17T15:39:02.296Z,1008.82
2022-08-17T15:40:01.370Z,1008.80
2022-08-17T15:41:01.426Z,1008.81
2022-08-17T15:42:01.565Z,1008.75
2022-08-17T15:43:01.361Z,1008.68
2022-08-17T15:44:01.418Z,1008.68
2022-08-17T15:45:01.381Z,1008.68
2022-08-17T15:46:01.158Z,1008.68
2022-08-17T15:47:01.121Z,1008.66
2022-08-17T15:48:01.081Z,1008.64
2022-08-17T15:49:01.111Z,1008.59
2022-08-17T15:50:01.097Z,1008.59
2022-08-17T15:51:01.061Z,1008.55
2022-08-17T15:52:01.032Z,1008.59
2022-08-17T15:53:01.052Z,1008.63
2022-08-17T15:54:04.452Z,1008.59
2022-08-17T15:55:02.008Z,1008.54
2022-08-17T15:56:01.464Z,1008.53
2022-08-17T15:57:00.986Z,1008.55
2022-08-17T15:58:00.989Z,1008.51
2022-08-17T15:59:00.997Z,1008.50
2022-08-17T16:00:01.065Z,1008.50
2022-08-17T16:01:16.535Z,1008.49
2022-08-17T16:03:15.225Z,1008.50
2022-08-17T16:03:46.050Z,1008.52
2022-08-17T16:04:06.569Z,1008.48
2022-08-17T16:05:01.978Z,1008.52
2022-08-17T16:06:01.438Z,1008.48
2022-08-17T16:07:01.473Z,1008.45
2022-08-17T16:08:01.379Z,1008.50
2022-08-17T16:09:01.422Z,1008.48
2022-08-17T16:10:00.820Z,1008.51
2022-08-17T16:11:01.356Z,1008.48
2022-08-17T16:12:02.119Z,1008.48
2022-08-17T16:13:02.712Z,1008.50
2022-08-17T16:14:00.732Z,1008.48
2022-08-17T16:15:01.683Z,1008.44
2022-08-17T16:16:01.583Z,1008.47
2022-08-17T16:17:00.715Z,1008.45
2022-08-17T16:18:00.679Z,1008.42
2022-08-17T16:19:01.563Z,1008.40
2022-08-17T16:20:00.672Z,1008.39
2022-08-17T16:21:00.640Z,1008.39
2022-08-17T16:22:00.616Z,1008.38
2022-08-17T16:23:01.426Z,1008.44
2022-08-17T16:24:00.601Z,1008.40
2022-08-17T16:25:00.636Z,1008.46
2022-08-17T16:26:00.586Z,1008.46
2022-08-17T16:27:01.562Z,1008.43
2022-08-17T16:28:01.408Z,1008.35
2022-08-17T16:29:00.550Z,1008.40
2022-08-17T16:30:01.452Z,1008.40
2022-08-17T16:31:01.419Z,1008.37
2022-08-17T16:32:01.360Z,1008.44
2022-08-17T16:33:01.347Z,1008.41
2022-08-17T16:34:17.070Z,1008.41
2022-08-17T16:35:01.467Z,1008.35
2022-08-17T16:36:01.204Z,1008.35
2022-08-17T16:37:01.363Z,1008.34
2022-08-17T16:38:00.411Z,1008.36
2022-08-17T16:39:01.175Z,1008.29
2022-08-17T16:40:00.526Z,1008.34
2022-08-17T16:41:00.414Z,1008.30
2022-08-17T16:42:00.439Z,1008.24
2022-08-17T16:43:00.406Z,1008.27
2022-08-17T16:44:00.335Z,1008.23
2022-08-17T16:45:00.367Z,1008.25
2022-08-17T16:46:00.299Z,1008.27
2022-08-17T16:47:00.324Z,1008.26
2022-08-17T16:48:00.278Z,1008.19
2022-08-17T16:49:00.279Z,1008.21
2022-08-17T16:50:00.279Z,1008.27
2022-08-17T16:51:04.007Z,1008.18
2022-08-17T16:52:00.249Z,1008.25
2022-08-17T16:53:00.210Z,1008.23
2022-08-17T16:54:00.211Z,1008.24
2022-08-17T16:55:00.233Z,1008.17
2022-08-17T16:56:00.281Z,1008.22
2022-08-17T16:57:00.200Z,1008.23
2022-08-17T16:58:00.343Z,1008.23
2022-08-17T16:59:00.121Z,1008.25
2022-08-17T17:00:01.111Z,1008.23
2022-08-17T17:01:01.136Z,1008.20
2022-08-17T17:02:00.099Z,1008.20
2022-08-17T17:03:00.914Z,1008.25
2022-08-17T17:04:01.498Z,1008.21
2022-08-17T17:05:00.156Z,1008.25
2022-08-17T17:06:00.086Z,1008.26
2022-08-17T17:07:00.016Z,1008.22
2022-08-17T17:08:00.016Z,1008.23
2022-08-17T17:09:00.005Z,1008.24
2022-08-17T17:09:59.977Z,1008.28
2022-08-17T17:11:00.916Z,1008.29
2022-08-17T17:12:00.019Z,1008.33
2022-08-17T17:13:03.498Z,1008.24
2022-08-17T17:13:59.950Z,1008.29
2022-08-17T17:14:59.915Z,1008.25
2022-08-17T17:16:00.051Z,1008.24
2022-08-17T17:16:59.882Z,1008.21
2022-08-17T17:17:59.910Z,1008.21
2022-08-17T17:19:01.682Z,1008.15
2022-08-17T17:19:59.848Z,1008.19
2022-08-17T17:20:59.811Z,1008.20
2022-08-17T17:21:59.947Z,1008.23